sensor_id;sensor_type;location;lat;lon;timestamp;pressure;altitude;pressure_sealevel;temperature;humidity
67987;BME280;54767;53.800;15.956;2023-05-01T00:00:01;100917.61;;;2.85;63.17
67987;BME280;54767;53.800;15.956;2023-05-01T00:02:51;100921.46;;;2.83;63.13
67987;BME280;54767;53.800;15.956;2023-05-01T00:05:19;100920.70;;;2.81;63.25
67987;BME280;54767;53.800;15.956;2023-05-01T00:07:48;100917.89;;;2.80;63.26
67987;BME280;54767;53.800;15.956;2023-05-01T00:10:16;100917.38;;;2.77;63.22
67987;BME280;54767;53.800;15.956;2023-05-01T00:12:46;100913.98;;;2.74;63.32
67987;BME280;54767;53.800;15.956;2023-05-01T00:15:14;100909.83;;;2.70;63.41
67987;BME280;54767;53.800;15.956;2023-05-01T00:17:42;100909.21;;;2.67;63.50
67987;BME280;54767;53.800;15.956;2023-05-01T00:20:10;100906.42;;;2.67;63.39
67987;BME280;54767;53.800;15.956;2023-05-01T00:22:38;100911.09;;;2.67;63.42
67987;BME280;54767;53.800;15.956;2023-05-01T00:25:07;100906.07;;;2.67;63.55
67987;BME280;54767;53.800;15.956;2023-05-01T00:27:35;100903.30;;;2.66;63.43
67987;BME280;54767;53.800;15.956;2023-05-01T00:30:04;100899.13;;;2.66;63.43
67987;BME280;54767;53.800;15.956;2023-05-01T00:32:32;100895.12;;;2.65;63.35
67987;BME280;54767;53.800;15.956;2023-05-01T00:35:01;100893.16;;;2.64;63.24
67987;BME280;54767;53.800;15.956;2023-05-01T00:37:29;100893.39;;;2.61;63.41
67987;BME280;54767;53.800;15.956;2023-05-01T00:39:57;100889.94;;;2.57;63.40
67987;BME280;54767;53.800;15.956;2023-05-01T00:42:26;100891.17;;;2.55;63.56
67987;BME280;54767;53.800;15.956;2023-05-01T00:44:54;100891.22;;;2.51;63.63
67987;BME280;54767;53.800;15.956;2023-05-01T00:47:22;100885.88;;;2.47;63.79
67987;BME280;54767;53.800;15.956;2023-05-01T00:49:51;100880.41;;;2.45;63.88
67987;BME280;54767;53.800;15.956;2023-05-01T00:52:19;100880.56;;;2.45;63.93
67987;BME280;54767;53.800;15.956;2023-05-01T00:54:48;100879.05;;;2.46;64.00
67987;BME280;54767;53.800;15.956;2023-05-01T00:57:19;100880.77;;;2.45;63.88
67987;BME280;54767;53.800;15.956;2023-05-01T00:59:47;100880.61;;;2.46;63.92
67987;BME280;54767;53.800;15.956;2023-05-01T01:02:16;100880.36;;;2.44;63.92
67987;BME280;54767;53.800;15.956;2023-05-01T01:04:45;100880.41;;;2.42;63.75
67987;BME280;54767;53.800;15.956;2023-05-01T01:10:07;100881.46;;;2.34;63.81
67987;BME280;54767;53.800;15.956;2023-05-01T01:15:18;100881.09;;;2.26;63.92
67987;BME280;54767;53.800;15.956;2023-05-01T01:18:07;100879.04;;;2.23;63.97
67987;BME280;54767;53.800;15.956;2023-05-01T01:20:42;100879.80;;;2.20;64.15
67987;BME280;54767;53.800;15.956;2023-05-01T01:28:33;100872.92;;;2.21;64.31
67987;BME280;54767;53.800;15.956;2023-05-01T01:31:17;100876.05;;;2.21;64.42
67987;BME280;54767;53.800;15.956;2023-05-01T01:34:24;100869.59;;;2.20;64.39
67987;BME280;54767;53.800;15.956;2023-05-01T01:37:10;100868.65;;;2.18;64.62
67987;BME280;54767;53.800;15.956;2023-05-01T01:40:06;100868.23;;;2.16;64.66
67987;BME280;54767;53.800;15.956;2023-05-01T01:42:40;100865.88;;;2.15;64.68
67987;BME280;54767;53.800;15.956;2023-05-01T01:45:18;100862.81;;;2.12;64.65
67987;BME280;54767;53.800;15.956;2023-05-01T01:47:49;100860.85;;;2.10;64.76
67987;BME280;54767;53.800;15.956;2023-05-01T01:50:21;100859.66;;;2.11;64.76
67987;BME280;54767;53.800;15.956;2023-05-01T01:52:52;100858.88;;;2.12;64.80
67987;BME280;54767;53.800;15.956;2023-05-01T01:55:21;100858.90;;;2.13;64.81
67987;BME280;54767;53.800;15.956;2023-05-01T01:57:52;100853.40;;;2.10;64.72
67987;BME280;54767;53.800;15.956;2023-05-01T02:00:21;100853.38;;;2.09;64.74
67987;BME280;54767;53.800;15.956;2023-05-01T02:02:51;100852.83;;;2.08;64.95
67987;BME280;54767;53.800;15.956;2023-05-01T02:05:21;100848.98;;;2.08;64.80
67987;BME280;54767;53.800;15.956;2023-05-01T02:07:51;100848.20;;;2.05;64.72
67987;BME280;54767;53.800;15.956;2023-05-01T02:10:21;100844.29;;;2.03;64.71
67987;BME280;54767;53.800;15.956;2023-05-01T02:12:50;100846.59;;;2.00;64.64
67987;BME280;54767;53.800;15.956;2023-05-01T02:15:19;100845.86;;;1.96;64.63
67987;BME280;54767;53.800;15.956;2023-05-01T02:17:48;100842.38;;;1.92;64.72
67987;BME280;54767;53.800;15.956;2023-05-01T02:20:18;100841.98;;;1.91;64.82
67987;BME280;54767;53.800;15.956;2023-05-01T02:22:50;100838.71;;;1.91;64.95
67987;BME280;54767;53.800;15.956;2023-05-01T02:25:20;100836.50;;;1.91;64.97
67987;BME280;54767;53.800;15.956;2023-05-01T02:27:49;100833.69;;;1.90;64.81
67987;BME280;54767;53.800;15.956;2023-05-01T02:30:20;100831.80;;;1.90;64.92
67987;BME280;54767;53.800;15.956;2023-05-01T02:32:48;100830.85;;;1.89;64.87
67987;BME280;54767;53.800;15.956;2023-05-01T02:35:16;100831.12;;;1.87;64.80
67987;BME280;54767;53.800;15.956;2023-05-01T02:37:44;100827.34;;;1.84;64.85
67987;BME280;54767;53.800;15.956;2023-05-01T02:40:13;100830.95;;;1.80;64.99
67987;BME280;54767;53.800;15.956;2023-05-01T02:42:43;100831.15;;;1.76;64.89
67987;BME280;54767;53.800;15.956;2023-05-01T02:45:17;100828.41;;;1.73;65.16
67987;BME280;54767;53.800;15.956;2023-05-01T02:47:51;100826.16;;;1.73;65.02
67987;BME280;54767;53.800;15.956;2023-05-01T02:50:22;100826.95;;;1.75;65.14
67987;BME280;54767;53.800;15.956;2023-05-01T02:52:51;100827.17;;;1.76;65.33
67987;BME280;54767;53.800;15.956;2023-05-01T02:55:21;100828.91;;;1.77;65.25
67987;BME280;54767;53.800;15.956;2023-05-01T02:57:52;100825.47;;;1.77;65.32
67987;BME280;54767;53.800;15.956;2023-05-01T03:00:20;100828.20;;;1.76;65.16
67987;BME280;54767;53.800;15.956;2023-05-01T03:02:48;100822.96;;;1.75;65.39
67987;BME280;54767;53.800;15.956;2023-05-01T03:05:16;100816.29;;;1.72;65.36
67987;BME280;54767;53.800;15.956;2023-05-01T03:07:45;100819.80;;;1.70;65.41
67987;BME280;54767;53.800;15.956;2023-05-01T03:10:14;100819.20;;;1.69;65.45
67987;BME280;54767;53.800;15.956;2023-05-01T03:12:42;100816.73;;;1.67;65.29
67987;BME280;54767;53.800;15.956;2023-05-01T03:15:11;100817.08;;;1.67;65.68
67987;BME280;54767;53.800;15.956;2023-05-01T03:17:39;100810.58;;;1.68;65.66
67987;BME280;54767;53.800;15.956;2023-05-01T03:20:08;100805.13;;;1.70;65.54
67987;BME280;54767;53.800;15.956;2023-05-01T03:22:38;100805.14;;;1.70;65.44
67987;BME280;54767;53.800;15.956;2023-05-01T03:25:07;100803.89;;;1.69;65.60
67987;BME280;54767;53.800;15.956;2023-05-01T03:27:36;100806.41;;;1.67;65.47
67987;BME280;54767;53.800;15.956;2023-05-01T03:30:04;100801.65;;;1.65;65.49
67987;BME280;54767;53.800;15.956;2023-05-01T03:32:33;100805.38;;;1.64;65.49
67987;BME280;54767;53.800;15.956;2023-05-01T03:35:01;100803.44;;;1.63;65.60
67987;BME280;54767;53.800;15.956;2023-05-01T03:37:29;100802.66;;;1.61;65.79
67987;BME280;54767;53.800;15.956;2023-05-01T03:39:58;100804.02;;;1.61;65.74
67987;BME280;54767;53.800;15.956;2023-05-01T03:42:26;100802.80;;;1.61;65.85
67987;BME280;54767;53.800;15.956;2023-05-01T03:44:54;100804.61;;;1.62;65.89
67987;BME280;54767;53.800;15.956;2023-05-01T03:47:23;100803.71;;;1.65;66.20
67987;BME280;54767;53.800;15.956;2023-05-01T03:49:51;100801.19;;;1.67;66.02
67987;BME280;54767;53.800;15.956;2023-05-01T03:52:19;100799.38;;;1.69;66.40
67987;BME280;54767;53.800;15.956;2023-05-01T03:54:47;100799.57;;;1.69;65.93
67987;BME280;54767;53.800;15.956;2023-05-01T03:57:16;100796.97;;;1.69;66.45
67987;BME280;54767;53.800;15.956;2023-05-01T03:59:45;100799.59;;;1.70;66.30
67987;BME280;54767;53.800;15.956;2023-05-01T04:02:14;100795.16;;;1.70;66.36
67987;BME280;54767;53.800;15.956;2023-05-01T04:04:42;100797.30;;;1.72;66.31
67987;BME280;54767;53.800;15.956;2023-05-01T04:07:11;100798.37;;;1.76;66.41
67987;BME280;54767;53.800;15.956;2023-05-01T04:09:40;100797.95;;;1.82;66.68
67987;BME280;54767;53.800;15.956;2023-05-01T04:12:08;100798.90;;;1.88;66.45
67987;BME280;54767;53.800;15.956;2023-05-01T04:14:36;100798.73;;;1.92;66.51
67987;BME280;54767;53.800;15.956;2023-05-01T04:17:04;100799.54;;;1.98;66.78
67987;BME280;54767;53.800;15.956;2023-05-01T04:19:33;100795.17;;;2.05;66.92
67987;BME280;54767;53.800;15.956;2023-05-01T04:22:01;100797.14;;;2.14;66.95
67987;BME280;54767;53.800;15.956;2023-05-01T04:24:29;100791.80;;;2.22;66.80
67987;BME280;54767;53.800;15.956;2023-05-01T04:26:57;100791.45;;;2.30;66.95
67987;BME280;54767;53.800;15.956;2023-05-01T04:29:25;100794.86;;;2.37;66.84
67987;BME280;54767;53.800;15.956;2023-05-01T04:31:54;100794.42;;;2.47;67.05
67987;BME280;54767;53.800;15.956;2023-05-01T04:34:22;100793.52;;;2.58;66.84
67987;BME280;54767;53.800;15.956;2023-05-01T04:36:50;100791.30;;;2.70;66.72
67987;BME280;54767;53.800;15.956;2023-05-01T04:39:18;100790.23;;;2.82;66.82
67987;BME280;54767;53.800;15.956;2023-05-01T04:41:46;100792.36;;;2.96;66.88
67987;BME280;54767;53.800;15.956;2023-05-01T04:44:14;100789.30;;;3.09;66.73
67987;BME280;54767;53.800;15.956;2023-05-01T04:46:43;100797.79;;;3.22;66.73
67987;BME280;54767;53.800;15.956;2023-05-01T04:49:11;100792.04;;;3.34;66.50
67987;BME280;54767;53.800;15.956;2023-05-01T04:51:39;100789.61;;;3.48;66.53
67987;BME280;54767;53.800;15.956;2023-05-01T04:54:08;100788.23;;;3.60;66.63
67987;BME280;54767;53.800;15.956;2023-05-01T04:56:36;100793.91;;;3.73;66.48
67987;BME280;54767;53.800;15.956;2023-05-01T04:59:04;100792.96;;;3.85;66.51
67987;BME280;54767;53.800;15.956;2023-05-01T05:01:33;100793.56;;;3.96;66.22
67987;BME280;54767;53.800;15.956;2023-05-01T05:04:01;100794.84;;;4.07;66.03
67987;BME280;54767;53.800;15.956;2023-05-01T05:06:29;100788.06;;;4.21;66.38
67987;BME280;54767;53.800;15.956;2023-05-01T05:08:58;100787.60;;;4.37;65.85
67987;BME280;54767;53.800;15.956;2023-05-01T05:11:26;100792.61;;;4.56;65.92
67987;BME280;54767;53.800;15.956;2023-05-01T05:13:54;100790.77;;;4.73;65.94
67987;BME280;54767;53.800;15.956;2023-05-01T05:16:23;100790.58;;;4.92;66.32
67987;BME280;54767;53.800;15.956;2023-05-01T05:18:51;100791.14;;;5.21;66.66
67987;BME280;54767;53.800;15.956;2023-05-01T05:21:19;100791.76;;;5.62;66.95
67987;BME280;54767;53.800;15.956;2023-05-01T05:23:47;100792.33;;;5.91;66.52
67987;BME280;54767;53.800;15.956;2023-05-01T05:26:15;100787.74;;;6.12;66.33
67987;BME280;54767;53.800;15.956;2023-05-01T05:28:43;100785.64;;;6.36;65.77
67987;BME280;54767;53.800;15.956;2023-05-01T05:31:12;100785.27;;;6.61;66.10
67987;BME280;54767;53.800;15.956;2023-05-01T05:33:40;100785.69;;;6.84;65.68
67987;BME280;54767;53.800;15.956;2023-05-01T05:36:09;100782.85;;;7.08;65.31
67987;BME280;54767;53.800;15.956;2023-05-01T05:38:37;100785.97;;;7.37;66.20
67987;BME280;54767;53.800;15.956;2023-05-01T05:41:05;100786.11;;;7.89;66.00
67987;BME280;54767;53.800;15.956;2023-05-01T05:43:33;100785.05;;;8.30;65.37
67987;BME280;54767;53.800;15.956;2023-05-01T05:46:01;100789.69;;;8.52;64.52
67987;BME280;54767;53.800;15.956;2023-05-01T05:48:30;100786.48;;;8.86;64.77
67987;BME280;54767;53.800;15.956;2023-05-01T05:50:58;100785.08;;;9.06;63.69
67987;BME280;54767;53.800;15.956;2023-05-01T05:53:26;100777.75;;;9.28;63.73
67987;BME280;54767;53.800;15.956;2023-05-01T05:55:54;100775.27;;;9.37;62.16
67987;BME280;54767;53.800;15.956;2023-05-01T05:58:22;100776.92;;;9.30;61.02
67987;BME280;54767;53.800;15.956;2023-05-01T06:00:51;100779.49;;;9.16;60.34
67987;BME280;54767;53.800;15.956;2023-05-01T06:03:26;100770.49;;;9.12;59.97
67987;BME280;54767;53.800;15.956;2023-05-01T06:05:54;100772.58;;;9.10;59.81
67987;BME280;54767;53.800;15.956;2023-05-01T06:08:22;100771.49;;;9.08;59.59
67987;BME280;54767;53.800;15.956;2023-05-01T06:10:51;100772.21;;;9.09;59.15
67987;BME280;54767;53.800;15.956;2023-05-01T06:13:19;100773.98;;;9.11;59.38
67987;BME280;54767;53.800;15.956;2023-05-01T06:15:47;100774.29;;;9.18;59.26
67987;BME280;54767;53.800;15.956;2023-05-01T06:18:15;100772.05;;;9.21;58.71
67987;BME280;54767;53.800;15.956;2023-05-01T06:20:44;100771.52;;;9.20;58.54
67987;BME280;54767;53.800;15.956;2023-05-01T06:23:14;100771.36;;;9.22;58.27
67987;BME280;54767;53.800;15.956;2023-05-01T06:25:43;100767.17;;;9.22;58.09
67987;BME280;54767;53.800;15.956;2023-05-01T06:28:11;100766.89;;;9.26;58.11
67987;BME280;54767;53.800;15.956;2023-05-01T06:30:39;100771.68;;;9.31;58.10
67987;BME280;54767;53.800;15.956;2023-05-01T06:33:07;100772.87;;;9.28;57.27
67987;BME280;54767;53.800;15.956;2023-05-01T06:35:40;100767.92;;;9.25;57.25
67987;BME280;54767;53.800;15.956;2023-05-01T06:38:08;100770.36;;;9.24;57.17
67987;BME280;54767;53.800;15.956;2023-05-01T06:40:36;100770.36;;;9.24;57.20
67987;BME280;54767;53.800;15.956;2023-05-01T06:43:04;100767.20;;;9.22;56.95
67987;BME280;54767;53.800;15.956;2023-05-01T06:45:32;100766.84;;;9.22;56.97
67987;BME280;54767;53.800;15.956;2023-05-01T06:48:00;100764.98;;;9.26;56.98
67987;BME280;54767;53.800;15.956;2023-05-01T06:50:29;100763.61;;;9.29;56.94
67987;BME280;54767;53.800;15.956;2023-05-01T06:52:57;100758.73;;;9.28;57.00
67987;BME280;54767;53.800;15.956;2023-05-01T06:55:28;100752.77;;;9.28;56.76
67987;BME280;54767;53.800;15.956;2023-05-01T06:58:02;100751.85;;;9.24;56.52
67987;BME280;54767;53.800;15.956;2023-05-01T07:00:49;100746.63;;;9.26;56.99
67987;BME280;54767;53.800;15.956;2023-05-01T07:03:18;100742.86;;;9.31;57.05
67987;BME280;54767;53.800;15.956;2023-05-01T07:05:46;100740.31;;;9.35;56.81
67987;BME280;54767;53.800;15.956;2023-05-01T07:08:15;100735.25;;;9.35;56.99
67987;BME280;54767;53.800;15.956;2023-05-01T07:10:43;100736.19;;;9.40;57.12
67987;BME280;54767;53.800;15.956;2023-05-01T07:13:11;100735.40;;;9.45;57.01
67987;BME280;54767;53.800;15.956;2023-05-01T07:15:39;100730.53;;;9.47;56.80
67987;BME280;54767;53.800;15.956;2023-05-01T07:18:08;100732.13;;;9.49;57.04
67987;BME280;54767;53.800;15.956;2023-05-01T07:20:36;100726.98;;;9.55;57.37
67987;BME280;54767;53.800;15.956;2023-05-01T07:23:04;100724.77;;;9.60;56.93
67987;BME280;54767;53.800;15.956;2023-05-01T07:25:35;100726.51;;;9.60;56.76
67987;BME280;54767;53.800;15.956;2023-05-01T07:28:11;100727.27;;;9.64;56.98
67987;BME280;54767;53.800;15.956;2023-05-01T07:30:39;100717.86;;;9.66;56.92
67987;BME280;54767;53.800;15.956;2023-05-01T07:33:07;100723.48;;;9.67;57.03
67987;BME280;54767;53.800;15.956;2023-05-01T07:35:35;100719.18;;;9.74;57.31
67987;BME280;54767;53.800;15.956;2023-05-01T07:38:04;100720.27;;;9.77;57.29
67987;BME280;54767;53.800;15.956;2023-05-01T07:40:32;100723.27;;;9.79;57.01
67987;BME280;54767;53.800;15.956;2023-05-01T07:43:01;100717.52;;;9.79;56.80
67987;BME280;54767;53.800;15.956;2023-05-01T07:45:29;100720.90;;;9.84;56.90
67987;BME280;54767;53.800;15.956;2023-05-01T07:47:58;100717.99;;;9.90;57.16
67987;BME280;54767;53.800;15.956;2023-05-01T07:50:26;100711.79;;;9.96;57.15
67987;BME280;54767;53.800;15.956;2023-05-01T07:52:54;100708.23;;;10.07;57.28
67987;BME280;54767;53.800;15.956;2023-05-01T07:55:23;100710.81;;;10.18;57.13
67987;BME280;54767;53.800;15.956;2023-05-01T07:57:51;100704.80;;;10.27;57.21
67987;BME280;54767;53.800;15.956;2023-05-01T08:00:19;100710.64;;;10.32;56.92
67987;BME280;54767;53.800;15.956;2023-05-01T08:02:47;100704.91;;;10.37;56.87
67987;BME280;54767;53.800;15.956;2023-05-01T08:05:16;100702.66;;;10.38;56.47
67987;BME280;54767;53.800;15.956;2023-05-01T08:07:44;100700.87;;;10.35;56.36
67987;BME280;54767;53.800;15.956;2023-05-01T08:10:12;100699.66;;;10.36;56.40
67987;BME280;54767;53.800;15.956;2023-05-01T08:12:40;100695.33;;;10.40;56.56
67987;BME280;54767;53.800;15.956;2023-05-01T08:15:08;100695.41;;;10.48;56.76
67987;BME280;54767;53.800;15.956;2023-05-01T08:17:37;100686.55;;;10.55;56.65
67987;BME280;54767;53.800;15.956;2023-05-01T08:20:05;100683.64;;;10.62;56.42
67987;BME280;54767;53.800;15.956;2023-05-01T08:22:34;100686.16;;;10.70;56.44
67987;BME280;54767;53.800;15.956;2023-05-01T08:25:03;100687.09;;;10.77;56.37
67987;BME280;54767;53.800;15.956;2023-05-01T08:27:31;100684.81;;;10.77;55.58
67987;BME280;54767;53.800;15.956;2023-05-01T08:30:00;100677.64;;;10.78;55.39
67987;BME280;54767;53.800;15.956;2023-05-01T08:32:28;100680.62;;;10.79;55.55
67987;BME280;54767;53.800;15.956;2023-05-01T08:34:56;100677.15;;;10.83;55.56
67987;BME280;54767;53.800;15.956;2023-05-01T08:37:25;100673.53;;;10.89;55.19
67987;BME280;54767;53.800;15.956;2023-05-01T08:39:53;100668.83;;;10.91;55.19
67987;BME280;54767;53.800;15.956;2023-05-01T08:42:22;100665.67;;;10.92;55.26
67987;BME280;54767;53.800;15.956;2023-05-01T08:44:52;100666.02;;;10.92;54.92
67987;BME280;54767;53.800;15.956;2023-05-01T08:47:21;100660.07;;;10.93;54.89
67987;BME280;54767;53.800;15.956;2023-05-01T08:49:50;100663.64;;;11.01;55.27
67987;BME280;54767;53.800;15.956;2023-05-01T08:52:19;100662.11;;;11.07;54.97
67987;BME280;54767;53.800;15.956;2023-05-01T08:54:49;100653.02;;;11.08;54.57
67987;BME280;54767;53.800;15.956;2023-05-01T08:57:21;100651.80;;;11.10;54.41
67987;BME280;54767;53.800;15.956;2023-05-01T08:59:51;100655.30;;;11.12;54.42
67987;BME280;54767;53.800;15.956;2023-05-01T09:02:29;100652.48;;;11.10;53.90
67987;BME280;54767;53.800;15.956;2023-05-01T09:05:01;100646.20;;;11.13;54.22
67987;BME280;54767;53.800;15.956;2023-05-01T09:07:33;100649.94;;;11.22;54.48
67987;BME280;54767;53.800;15.956;2023-05-01T09:10:02;100638.60;;;11.30;54.47
67987;BME280;54767;53.800;15.956;2023-05-01T09:12:31;100638.45;;;11.36;54.24
67987;BME280;54767;53.800;15.956;2023-05-01T09:15:03;100637.44;;;11.44;54.48
67987;BME280;54767;53.800;15.956;2023-05-01T09:17:31;100627.50;;;11.55;54.07
67987;BME280;54767;53.800;15.956;2023-05-01T09:20:03;100620.52;;;11.60;53.53
67987;BME280;54767;53.800;15.956;2023-05-01T09:22:34;100620.36;;;11.66;53.92
67987;BME280;54767;53.800;15.956;2023-05-01T09:25:03;100620.39;;;11.75;54.26
67987;BME280;54767;53.800;15.956;2023-05-01T09:27:36;100614.66;;;11.87;54.20
67987;BME280;54767;53.800;15.956;2023-05-01T09:30:05;100611.89;;;11.99;54.18
67987;BME280;54767;53.800;15.956;2023-05-01T09:32:34;100604.55;;;12.08;53.62
67987;BME280;54767;53.800;15.956;2023-05-01T09:35:13;100610.34;;;12.12;52.49
67987;BME280;54767;53.800;15.956;2023-05-01T09:37:41;100608.94;;;12.12;51.91
67987;BME280;54767;53.800;15.956;2023-05-01T09:40:12;100605.61;;;12.13;51.92
67987;BME280;54767;53.800;15.956;2023-05-01T09:42:54;100604.21;;;12.19;52.47
67987;BME280;54767;53.800;15.956;2023-05-01T09:45:28;100598.43;;;12.29;52.38
67987;BME280;54767;53.800;15.956;2023-05-01T09:48:32;100601.23;;;12.37;51.90
67987;BME280;54767;53.800;15.956;2023-05-01T09:54:27;100597.20;;;12.48;50.62
67987;BME280;54767;53.800;15.956;2023-05-01T09:57:03;100592.11;;;12.48;50.55
67987;BME280;54767;53.800;15.956;2023-05-01T10:00:00;100587.73;;;12.53;50.65
67987;BME280;54767;53.800;15.956;2023-05-01T10:02:41;100577.71;;;12.57;50.27
67987;BME280;54767;53.800;15.956;2023-05-01T10:05:13;100579.82;;;12.58;49.69
67987;BME280;54767;53.800;15.956;2023-05-01T10:08:03;100576.65;;;12.60;49.44
67987;BME280;54767;53.800;15.956;2023-05-01T10:16:29;100574.17;;;12.82;50.32
67987;BME280;54767;53.800;15.956;2023-05-01T10:55:47;100515.54;;;14.13;46.40
67987;BME280;54767;53.800;15.956;2023-05-01T11:03:33;100506.89;;;14.36;45.72
67987;BME280;54767;53.800;15.956;2023-05-01T11:06:08;100510.69;;;14.43;45.42
67987;BME280;54767;53.800;15.956;2023-05-01T11:08:37;100514.14;;;14.54;44.96
67987;BME280;54767;53.800;15.956;2023-05-01T11:14:04;100505.02;;;14.68;44.10
67987;BME280;54767;53.800;15.956;2023-05-01T11:16:39;100505.12;;;14.76;43.71
67987;BME280;54767;53.800;15.956;2023-05-01T11:22:12;100471.58;;;14.97;43.56
67987;BME280;54767;53.800;15.956;2023-05-01T11:24:41;100477.11;;;15.05;43.45
67987;BME280;54767;53.800;15.956;2023-05-01T11:27:12;100474.21;;;15.11;42.88
67987;BME280;54767;53.800;15.956;2023-05-01T11:33:20;100457.24;;;15.28;42.09
67987;BME280;54767;53.800;15.956;2023-05-01T11:36:26;100452.77;;;15.32;41.58
67987;BME280;54767;53.800;15.956;2023-05-01T11:38:57;100448.63;;;15.38;41.34
67987;BME280;54767;53.800;15.956;2023-05-01T11:42:08;100448.88;;;15.46;41.78
67987;BME280;54767;53.800;15.956;2023-05-01T11:48:28;100445.83;;;15.60;41.12
67987;BME280;54767;53.800;15.956;2023-05-01T11:50:59;100436.23;;;15.66;41.15
67987;BME280;54767;53.800;15.956;2023-05-01T11:53:30;100434.02;;;15.74;41.42
67987;BME280;54767;53.800;15.956;2023-05-01T11:56:20;100435.04;;;15.86;40.92
67987;BME280;54767;53.800;15.956;2023-05-01T11:59:08;100431.59;;;15.92;40.53
67987;BME280;54767;53.800;15.956;2023-05-01T12:01:46;100421.98;;;15.96;40.54
67987;BME280;54767;53.800;15.956;2023-05-01T12:04:25;100420.79;;;16.04;40.96
67987;BME280;54767;53.800;15.956;2023-05-01T12:07:33;100422.42;;;16.13;40.93
67987;BME280;54767;53.800;15.956;2023-05-01T12:10:06;100421.39;;;16.20;40.77
67987;BME280;54767;53.800;15.956;2023-05-01T12:12:35;100414.38;;;16.27;40.77
67987;BME280;54767;53.800;15.956;2023-05-01T12:15:04;100405.73;;;16.36;40.95
67987;BME280;54767;53.800;15.956;2023-05-01T12:17:35;100403.25;;;16.46;40.29
67987;BME280;54767;53.800;15.956;2023-05-01T12:20:04;100400.98;;;16.53;39.68
67987;BME280;54767;53.800;15.956;2023-05-01T12:22:33;100394.85;;;16.60;38.82
67987;BME280;54767;53.800;15.956;2023-05-01T12:25:01;100386.78;;;16.66;38.39
67987;BME280;54767;53.800;15.956;2023-05-01T12:27:31;100377.31;;;16.70;38.17
67987;BME280;54767;53.800;15.956;2023-05-01T12:30:01;100375.82;;;16.74;37.96
67987;BME280;54767;53.800;15.956;2023-05-01T12:32:31;100373.84;;;16.77;37.89
67987;BME280;54767;53.800;15.956;2023-05-01T12:35:11;100373.00;;;16.84;38.31
67987;BME280;54767;53.800;15.956;2023-05-01T12:37:40;100369.28;;;16.92;39.20
67987;BME280;54767;53.800;15.956;2023-05-01T12:40:14;100360.82;;;16.99;39.02
67987;BME280;54767;53.800;15.956;2023-05-01T12:42:53;100356.16;;;17.09;39.77
67987;BME280;54767;53.800;15.956;2023-05-01T12:45:22;100352.41;;;17.19;39.78
67987;BME280;54767;53.800;15.956;2023-05-01T12:47:50;100348.88;;;17.26;39.52
67987;BME280;54767;53.800;15.956;2023-05-01T12:50:19;100343.99;;;17.31;39.56
67987;BME280;54767;53.800;15.956;2023-05-01T12:52:48;100345.61;;;17.37;39.51
67987;BME280;54767;53.800;15.956;2023-05-01T12:55:16;100338.88;;;17.45;39.55
67987;BME280;54767;53.800;15.956;2023-05-01T12:57:52;100336.32;;;17.55;39.02
67987;BME280;54767;53.800;15.956;2023-05-01T13:00:22;100336.32;;;17.61;38.67
67987;BME280;54767;53.800;15.956;2023-05-01T13:02:50;100331.41;;;17.67;39.08
67987;BME280;54767;53.800;15.956;2023-05-01T13:05:18;100321.20;;;17.72;38.82
67987;BME280;54767;53.800;15.956;2023-05-01T13:07:47;100315.41;;;17.77;38.35
67987;BME280;54767;53.800;15.956;2023-05-01T13:10:27;100307.75;;;17.80;38.10
67987;BME280;54767;53.800;15.956;2023-05-01T13:12:56;100310.53;;;17.82;38.02
67987;BME280;54767;53.800;15.956;2023-05-01T13:15:24;100298.92;;;17.85;37.78
67987;BME280;54767;53.800;15.956;2023-05-01T13:17:52;100292.47;;;17.89;36.64
67987;BME280;54767;53.800;15.956;2023-05-01T13:20:25;100287.23;;;17.92;37.15
67987;BME280;54767;53.800;15.956;2023-05-01T13:22:56;100285.45;;;17.99;37.31
67987;BME280;54767;53.800;15.956;2023-05-01T13:25:24;100278.05;;;17.98;36.66
67987;BME280;54767;53.800;15.956;2023-05-01T13:27:53;100271.58;;;17.94;36.55
67987;BME280;54767;53.800;15.956;2023-05-01T13:30:31;100268.70;;;17.97;36.17
67987;BME280;54767;53.800;15.956;2023-05-01T13:32:59;100265.23;;;18.01;36.79
67987;BME280;54767;53.800;15.956;2023-05-01T13:35:29;100261.45;;;18.02;36.73
67987;BME280;54767;53.800;15.956;2023-05-01T13:37:59;100266.14;;;18.06;37.08
67987;BME280;54767;53.800;15.956;2023-05-01T13:40:32;100258.22;;;18.04;36.44
67987;BME280;54767;53.800;15.956;2023-05-01T13:43:01;100259.17;;;18.02;36.28
67987;BME280;54767;53.800;15.956;2023-05-01T13:45:29;100258.04;;;17.98;36.33
67987;BME280;54767;53.800;15.956;2023-05-01T13:47:58;100257.27;;;17.94;36.31
67987;BME280;54767;53.800;15.956;2023-05-01T13:50:26;100252.56;;;17.91;36.29
67987;BME280;54767;53.800;15.956;2023-05-01T13:52:55;100246.54;;;17.92;36.41
67987;BME280;54767;53.800;15.956;2023-05-01T13:55:23;100243.70;;;17.92;36.09
67987;BME280;54767;53.800;15.956;2023-05-01T13:57:51;100242.36;;;17.95;36.31
67987;BME280;54767;53.800;15.956;2023-05-01T14:00:20;100241.03;;;17.98;36.20
67987;BME280;54767;53.800;15.956;2023-05-01T14:02:49;100232.08;;;18.01;36.07
67987;BME280;54767;53.800;15.956;2023-05-01T14:05:25;100228.85;;;18.03;36.10
67987;BME280;54767;53.800;15.956;2023-05-01T14:07:56;100227.61;;;18.09;35.99
67987;BME280;54767;53.800;15.956;2023-05-01T14:10:26;100222.91;;;18.12;35.69
67987;BME280;54767;53.800;15.956;2023-05-01T14:12:57;100219.34;;;18.07;34.79
67987;BME280;54767;53.800;15.956;2023-05-01T14:15:27;100219.21;;;18.05;35.00
67987;BME280;54767;53.800;15.956;2023-05-01T14:18:17;100215.38;;;18.03;34.76